Time;durP1;ratioP1;P1;durP2;ratioP2;P2;SDS_P1;SDS_P2;PMS_P1;PMS_P2;Temp;Humidity;BMP_temperature;BMP_pressure;BME280_temperature;BME280_humidity;BME280_pressure;Samples;Min_cycle;Max_cycle;Signal;HPM_P1;HPM_P2
2022/09/11 00:01:30;;;;;;;6.00;4.20;;;;;;;;;;110437;1251;34630;-39
2022/09/11 00:04:05;;;;;;;6.00;4.60;;;;;;;;;;110537;1251;34218;-40
2022/09/11 00:06:36;;;;;;;7.10;4.70;;;;;;;;;;110273;1250;34485;-42
2022/09/11 00:09:07;;;;;;;7.00;4.80;;;;;;;;;;110171;1251;34264;-41
2022/09/11 00:11:43;;;;;;;5.90;4.30;;;;;;;;;;110200;1251;36728;-41
2022/09/11 00:14:15;;;;;;;6.90;4.50;;;;;;;;;;110698;1251;36229;-39
2022/09/11 00:16:50;;;;;;;6.80;4.70;;;;;;;;;;110782;1251;38512;-39
2022/09/11 00:19:21;;;;;;;6.50;4.60;;;;;;;;;;111555;1251;33808;-37
2022/09/11 00:21:54;;;;;;;6.30;4.60;;;;;;;;;;111033;1251;33844;-35
2022/09/11 00:24:32;;;;;;;7.00;4.90;;;;;;;;;;111039;1251;37640;-38
2022/09/11 00:27:05;;;;;;;6.60;4.50;;;;;;;;;;110690;1250;38355;-39
2022/09/11 00:29:37;;;;;;;6.70;5.10;;;;;;;;;;110787;1251;34579;-34
2022/09/11 00:32:11;;;;;;;6.90;5.10;;;;;;;;;;110986;1251;34606;-37
2022/09/11 00:34:46;;;;;;;6.30;4.50;;;;;;;;;;110325;1251;34074;-39
2022/09/11 00:37:23;;;;;;;7.00;5.00;;;;;;;;;;110235;1251;42217;-41
2022/09/11 00:39:58;;;;;;;7.10;4.90;;;;;;;;;;110236;1251;34355;-37
2022/09/11 00:42:31;;;;;;;6.20;4.10;;;;;;;;;;110116;1252;33832;-38
2022/09/11 00:45:20;;;;;;;5.40;4.30;;;;;;;;;;110249;1252;34279;-41
2022/09/11 00:48:00;;;;;;;6.20;4.60;;;;;;;;;;110163;1253;34194;-42
2022/09/11 00:50:34;;;;;;;7.40;4.90;;;;;;;;;;110223;1253;35619;-41
2022/09/11 00:53:10;;;;;;;6.00;4.20;;;;;;;;;;109903;1253;34274;-41
2022/09/11 00:55:46;;;;;;;6.40;4.60;;;;;;;;;;109879;1253;34980;-38
2022/09/11 00:58:23;;;;;;;6.20;4.40;;;;;;;;;;109862;1253;36194;-41
2022/09/11 01:00:57;;;;;;;7.00;5.00;;;;;;;;;;109886;1253;34220;-41
2022/09/11 01:03:29;;;;;;;6.20;4.60;;;;;;;;;;109903;1253;37314;-39
2022/09/11 01:06:05;;;;;;;7.30;4.80;;;;;;;;;;110296;1253;36782;-37
2022/09/11 01:08:43;;;;;;;6.20;4.30;;;;;;;;;;110882;1253;35031;-39
2022/09/11 01:11:39;;;;;;;6.00;4.20;;;;;;;;;;110942;1253;33892;-39
2022/09/11 01:14:40;;;;;;;5.80;4.50;;;;;;;;;;111032;1253;34007;-37
2022/09/11 01:17:32;;;;;;;6.40;4.60;;;;;;;;;;111085;1253;35816;-38
2022/09/11 01:20:35;;;;;;;6.50;4.70;;;;;;;;;;111095;1253;34488;-37
2022/09/11 01:23:34;;;;;;;7.00;4.90;;;;;;;;;;111034;1253;35700;-36
2022/09/11 01:26:36;;;;;;;6.00;4.50;;;;;;;;;;111269;1253;33835;-36
2022/09/11 01:29:29;;;;;;;7.50;4.60;;;;;;;;;;111385;1252;34010;-36
2022/09/11 01:32:19;;;;;;;6.80;5.10;;;;;;;;;;111084;1252;35940;-41
2022/09/11 01:34:58;;;;;;;8.10;4.30;;;;;;;;;;110709;1252;34961;-41
2022/09/11 01:37:41;;;;;;;6.30;4.60;;;;;;;;;;110423;1252;34910;-39
2022/09/11 01:40:23;;;;;;;5.60;4.30;;;;;;;;;;110276;1252;34839;-41
2022/09/11 01:43:00;;;;;;;5.70;4.40;;;;;;;;;;110391;1252;34030;-41
2022/09/11 01:45:36;;;;;;;7.20;4.70;;;;;;;;;;110477;1252;36419;-43
2022/09/11 01:48:12;;;;;;;6.10;4.60;;;;;;;;;;110539;1252;35021;-42
2022/09/11 01:50:49;;;;;;;7.50;4.20;;;;;;;;;;110386;1253;34150;-42
2022/09/11 01:53:31;;;;;;;6.00;4.60;;;;;;;;;;110600;1253;34961;-39
2022/09/11 01:56:12;;;;;;;6.30;4.60;;;;;;;;;;110879;1253;33731;-41
2022/09/11 01:58:49;;;;;;;6.30;4.80;;;;;;;;;;110550;1252;35940;-41
2022/09/11 02:01:33;;;;;;;6.40;5.10;;;;;;;;;;110684;1252;37648;-41
2022/09/11 02:04:09;;;;;;;6.30;4.80;;;;;;;;;;111076;1252;36737;-39
2022/09/11 02:06:47;;;;;;;7.50;5.10;;;;;;;;;;110327;1252;36169;-37
2022/09/11 02:09:23;;;;;;;6.80;4.90;;;;;;;;;;110023;1253;33490;-37
2022/09/11 02:11:57;;;;;;;7.60;5.20;;;;;;;;;;110015;1253;36909;-37
2022/09/11 02:14:31;;;;;;;6.10;4.50;;;;;;;;;;110054;1253;37930;-37
2022/09/11 02:17:10;;;;;;;7.40;5.20;;;;;;;;;;110026;1253;34486;-36
2022/09/11 02:19:43;;;;;;;6.10;4.90;;;;;;;;;;110051;1252;36223;-37
2022/09/11 02:22:14;;;;;;;6.80;4.60;;;;;;;;;;110078;1252;36167;-36
2022/09/11 02:24:45;;;;;;;6.60;5.30;;;;;;;;;;110110;1252;36614;-37
2022/09/11 02:27:21;;;;;;;6.80;4.70;;;;;;;;;;110090;1253;34746;-37
2022/09/11 02:29:53;;;;;;;6.10;4.60;;;;;;;;;;109978;1253;36137;-37
2022/09/11 02:32:25;;;;;;;7.40;5.10;;;;;;;;;;110033;1253;36152;-37
2022/09/11 02:34:57;;;;;;;6.40;4.70;;;;;;;;;;110025;1253;36130;-37
2022/09/11 02:37:38;;;;;;;6.90;5.10;;;;;;;;;;110028;1253;36334;-37
2022/09/11 02:40:31;;;;;;;6.40;4.50;;;;;;;;;;110011;1252;36166;-37
2022/09/11 02:43:18;;;;;;;6.30;4.70;;;;;;;;;;110051;1252;36269;-37
2022/09/11 02:45:58;;;;;;;6.70;4.80;;;;;;;;;;110066;1253;35169;-37
2022/09/11 02:48:43;;;;;;;6.40;5.20;;;;;;;;;;110025;1253;36176;-37
2022/09/11 02:51:24;;;;;;;6.90;5.10;;;;;;;;;;110006;1253;42829;-37
2022/09/11 02:54:05;;;;;;;6.70;5.00;;;;;;;;;;110043;1253;34661;-37
2022/09/11 02:56:44;;;;;;;6.60;5.10;;;;;;;;;;110005;1253;36515;-35
2022/09/11 02:59:23;;;;;;;6.40;4.80;;;;;;;;;;110004;1253;35518;-35
2022/09/11 03:02:00;;;;;;;5.90;4.70;;;;;;;;;;110081;1252;36044;-35
2022/09/11 03:04:33;;;;;;;6.90;4.40;;;;;;;;;;110065;1252;36146;-35
2022/09/11 03:07:04;;;;;;;6.70;5.00;;;;;;;;;;110076;1253;36161;-35
2022/09/11 03:09:37;;;;;;;5.60;4.50;;;;;;;;;;109981;1253;34826;-35
2022/09/11 03:12:10;;;;;;;7.00;4.80;;;;;;;;;;109999;1253;36206;-35
2022/09/11 03:14:41;;;;;;;6.20;5.10;;;;;;;;;;110019;1253;35399;-35
2022/09/11 03:17:12;;;;;;;7.10;4.80;;;;;;;;;;110011;1253;36601;-35
2022/09/11 03:19:43;;;;;;;6.20;4.90;;;;;;;;;;110021;1252;37072;-35
2022/09/11 03:22:14;;;;;;;7.90;5.50;;;;;;;;;;110074;1252;34882;-35
2022/09/11 03:24:44;;;;;;;6.70;5.00;;;;;;;;;;110112;1252;36271;-35
2022/09/11 03:27:17;;;;;;;6.90;4.90;;;;;;;;;;110089;1253;35445;-35
2022/09/11 03:29:47;;;;;;;6.10;4.40;;;;;;;;;;110057;1253;35623;-35
2022/09/11 03:32:18;;;;;;;6.00;4.50;;;;;;;;;;110038;1253;36221;-35
2022/09/11 03:34:50;;;;;;;6.20;4.90;;;;;;;;;;110027;1253;36630;-35
2022/09/11 03:37:21;;;;;;;6.40;4.60;;;;;;;;;;110030;1253;37110;-35
2022/09/11 03:39:53;;;;;;;6.60;4.90;;;;;;;;;;110013;1253;33879;-35
2022/09/11 03:42:24;;;;;;;6.50;4.80;;;;;;;;;;110142;1252;36865;-35
2022/09/11 03:44:57;;;;;;;6.30;5.00;;;;;;;;;;110116;1253;36661;-35
2022/09/11 03:47:29;;;;;;;;;;;;;;;;;;110097;1252;34665;-34
2022/09/11 03:50:00;;;;;;;6.60;5.00;;;;;;;;;;110006;1253;35564;-35
2022/09/11 03:52:31;;;;;;;6.10;4.20;;;;;;;;;;110035;1253;36080;-35
2022/09/11 03:55:02;;;;;;;6.40;4.80;;;;;;;;;;110028;1253;35385;-35
2022/09/11 03:57:36;;;;;;;6.00;4.40;;;;;;;;;;110022;1253;34894;-35
2022/09/11 04:00:10;;;;;;;6.10;4.80;;;;;;;;;;110011;1253;36101;-34
2022/09/11 04:02:44;;;;;;;6.50;4.70;;;;;;;;;;110086;1252;36147;-34
2022/09/11 04:05:15;;;;;;;6.70;5.00;;;;;;;;;;110082;1252;36597;-34
2022/09/11 04:07:45;;;;;;;6.50;5.10;;;;;;;;;;110071;1252;36150;-34
2022/09/11 04:10:16;;;;;;;6.50;5.00;;;;;;;;;;110057;1252;36633;-35
2022/09/11 04:12:48;;;;;;;6.90;5.20;;;;;;;;;;110003;1253;35436;-35
2022/09/11 04:15:20;;;;;;;5.90;4.70;;;;;;;;;;110003;1253;36607;-34
2022/09/11 04:17:51;;;;;;;6.80;4.90;;;;;;;;;;110025;1253;36189;-34
2022/09/11 04:20:22;;;;;;;6.10;4.60;;;;;;;;;;110002;1253;36220;-35
2022/09/11 04:22:54;;;;;;;6.00;4.60;;;;;;;;;;110025;1253;36942;-35
2022/09/11 04:25:25;;;;;;;6.80;4.80;;;;;;;;;;110084;1252;36527;-35
2022/09/11 04:27:56;;;;;;;5.70;4.80;;;;;;;;;;110111;1252;36233;-35
2022/09/11 04:30:26;;;;;;;6.00;4.80;;;;;;;;;;110052;1252;36839;-35
2022/09/11 04:32:57;;;;;;;6.30;4.80;;;;;;;;;;110031;1252;36623;-34
2022/09/11 04:35:29;;;;;;;6.20;4.30;;;;;;;;;;110053;1252;36105;-35
2022/09/11 04:37:59;;;;;;;6.90;4.80;;;;;;;;;;110075;1253;36122;-35
2022/09/11 04:40:30;;;;;;;5.80;4.40;;;;;;;;;;110043;1253;38071;-35
2022/09/11 04:43:01;;;;;;;6.50;5.10;;;;;;;;;;109983;1253;36139;-35
2022/09/11 04:45:35;;;;;;;6.00;4.50;;;;;;;;;;110036;1253;35908;-35
2022/09/11 04:48:09;;;;;;;6.00;4.60;;;;;;;;;;110000;1253;36738;-34
2022/09/11 04:50:41;;;;;;;6.30;4.80;;;;;;;;;;110031;1253;36645;-35
2022/09/11 04:53:12;;;;;;;6.20;4.50;;;;;;;;;;109997;1252;34004;-35
2022/09/11 04:55:44;;;;;;;6.00;4.40;;;;;;;;;;110050;1253;36262;-34
2022/09/11 04:58:16;;;;;;;7.70;4.90;;;;;;;;;;110100;1253;36536;-35
2022/09/11 05:00:47;;;;;;;6.70;4.80;;;;;;;;;;110073;1252;36671;-35
2022/09/11 05:03:20;;;;;;;7.00;4.90;;;;;;;;;;109952;1253;34867;-35
2022/09/11 05:05:52;;;;;;;7.00;5.30;;;;;;;;;;110023;1253;34677;-35
2022/09/11 05:08:25;;;;;;;6.60;5.10;;;;;;;;;;110039;1253;36602;-35
2022/09/11 05:10:56;;;;;;;;;;;;;;;;;;110046;1253;36470;-35
2022/09/11 05:13:30;;;;;;;8.20;5.60;;;;;;;;;;109976;1252;33387;-35
2022/09/11 05:16:04;;;;;;;7.50;5.10;;;;;;;;;;110036;1252;33935;-35
2022/09/11 05:18:39;;;;;;;7.00;4.90;;;;;;;;;;110042;1252;36570;-35
2022/09/11 05:21:12;;;;;;;7.40;5.10;;;;;;;;;;110075;1252;36662;-35
2022/09/11 05:23:42;;;;;;;;;;;;;;;;;;109987;1253;34901;-35
2022/09/11 05:26:16;;;;;;;7.60;4.90;;;;;;;;;;110035;1253;35700;-35
2022/09/11 05:28:47;;;;;;;7.50;5.50;;;;;;;;;;110028;1253;36552;-35
2022/09/11 05:31:19;;;;;;;7.10;5.00;;;;;;;;;;110006;1253;35371;-35
2022/09/11 05:33:50;;;;;;;7.50;4.80;;;;;;;;;;110027;1252;36458;-35
2022/09/11 05:36:22;;;;;;;7.10;4.80;;;;;;;;;;110065;1252;36570;-34
2022/09/11 05:38:54;;;;;;;8.20;4.90;;;;;;;;;;110023;1252;36663;-35
2022/09/11 05:41:25;;;;;;;6.70;4.40;;;;;;;;;;110024;1252;36434;-34
2022/09/11 05:43:57;;;;;;;7.70;4.60;;;;;;;;;;110002;1252;34805;-34
2022/09/11 05:46:28;;;;;;;7.40;4.90;;;;;;;;;;110007;1253;36589;-34
2022/09/11 05:48:59;;;;;;;7.50;4.70;;;;;;;;;;110015;1253;36661;-34
2022/09/11 05:51:34;;;;;;;6.80;4.60;;;;;;;;;;109936;1253;36819;-35
2022/09/11 05:54:05;;;;;;;7.50;5.10;;;;;;;;;;109994;1252;37835;-34
2022/09/11 05:56:40;;;;;;;6.20;4.60;;;;;;;;;;110023;1252;36749;-35
2022/09/11 05:59:14;;;;;;;8.80;5.30;;;;;;;;;;110039;1253;36187;-35
2022/09/11 06:01:46;;;;;;;8.10;4.90;;;;;;;;;;110017;1252;36891;-35
2022/09/11 06:04:18;;;;;;;7.20;4.70;;;;;;;;;;109996;1252;36552;-35
2022/09/11 06:06:49;;;;;;;6.90;4.50;;;;;;;;;;110009;1253;36637;-35
2022/09/11 06:09:20;;;;;;;6.60;4.70;;;;;;;;;;110008;1253;36586;-35
2022/09/11 06:11:53;;;;;;;6.70;4.60;;;;;;;;;;110015;1253;34909;-35
2022/09/11 06:14:24;;;;;;;7.10;4.70;;;;;;;;;;110005;1252;35438;-34
2022/09/11 06:16:56;;;;;;;7.20;4.90;;;;;;;;;;110052;1252;36597;-34
2022/09/11 06:19:26;;;;;;;7.70;4.50;;;;;;;;;;110016;1253;34710;-35
2022/09/11 06:21:57;;;;;;;6.60;4.30;;;;;;;;;;110040;1252;36319;-35
2022/09/11 06:24:30;;;;;;;6.70;4.70;;;;;;;;;;109947;1252;36150;-35
2022/09/11 06:27:01;;;;;;;6.20;4.10;;;;;;;;;;110048;1253;36975;-35
2022/09/11 06:29:33;;;;;;;7.70;4.70;;;;;;;;;;110036;1253;36533;-35
2022/09/11 06:32:05;;;;;;;6.40;4.50;;;;;;;;;;110030;1253;38206;-35
2022/09/11 06:34:39;;;;;;;6.80;4.50;;;;;;;;;;109987;1252;36172;-35
2022/09/11 06:37:10;;;;;;;6.30;4.70;;;;;;;;;;110029;1252;36556;-35
2022/09/11 06:39:43;;;;;;;6.90;4.60;;;;;;;;;;110987;1252;37046;-41
2022/09/11 06:42:14;;;;;;;7.00;4.20;;;;;;;;;;111194;1252;34382;-42
2022/09/11 06:44:45;;;;;;;6.70;4.30;;;;;;;;;;110869;1252;34264;-39
2022/09/11 06:47:19;;;;;;;6.70;4.30;;;;;;;;;;110917;1253;34323;-41
2022/09/11 06:49:52;;;;;;;7.90;4.40;;;;;;;;;;110715;1253;34009;-41
2022/09/11 06:52:23;;;;;;;6.10;4.40;;;;;;;;;;110957;1253;35890;-39
2022/09/11 06:54:53;;;;;;;7.20;4.60;;;;;;;;;;111245;1252;36745;-41
2022/09/11 06:57:24;;;;;;;6.20;4.10;;;;;;;;;;111404;1252;34359;-38
2022/09/11 06:59:56;;;;;;;5.80;4.30;;;;;;;;;;110321;1253;36381;-37
2022/09/11 07:02:31;;;;;;;6.70;4.20;;;;;;;;;;110073;1253;35036;-37
2022/09/11 07:05:10;;;;;;;6.20;4.40;;;;;;;;;;110068;1252;34680;-37
2022/09/11 07:07:42;;;;;;;5.70;4.10;;;;;;;;;;110078;1253;36620;-37
2022/09/11 07:10:14;;;;;;;6.20;4.20;;;;;;;;;;110019;1253;37803;-35
2022/09/11 07:12:44;;;;;;;6.00;4.10;;;;;;;;;;110013;1253;36207;-34
2022/09/11 07:15:16;;;;;;;5.70;4.40;;;;;;;;;;109982;1253;36607;-35
2022/09/11 07:17:47;;;;;;;6.60;4.00;;;;;;;;;;109361;1253;878552;-35
2022/09/11 07:20:18;;;;;;;5.40;4.10;;;;;;;;;;110052;1253;36544;-35
2022/09/11 07:22:49;;;;;;;5.90;4.10;;;;;;;;;;110007;1252;36195;-35
2022/09/11 07:25:21;;;;;;;5.90;4.00;;;;;;;;;;109965;1253;36623;-35
2022/09/11 07:27:53;;;;;;;7.30;4.40;;;;;;;;;;110015;1253;38251;-34
2022/09/11 07:30:24;;;;;;;5.30;3.70;;;;;;;;;;110040;1253;36677;-34
2022/09/11 07:32:54;;;;;;;5.80;4.10;;;;;;;;;;110042;1253;36634;-35
2022/09/11 07:35:25;;;;;;;6.80;4.30;;;;;;;;;;109998;1252;34801;-35
2022/09/11 07:37:58;;;;;;;5.70;4.00;;;;;;;;;;110011;1253;34759;-35
2022/09/11 07:40:30;;;;;;;5.40;4.00;;;;;;;;;;110014;1254;36145;-34
2022/09/11 07:43:01;;;;;;;5.80;4.10;;;;;;;;;;110051;1253;36188;-36
2022/09/11 07:45:32;;;;;;;6.50;4.30;;;;;;;;;;110008;1253;36644;-37
2022/09/11 07:48:05;;;;;;;5.70;3.90;;;;;;;;;;110009;1253;34238;-37
2022/09/11 07:50:36;;;;;;;5.20;3.80;;;;;;;;;;110035;1253;36582;-37
2022/09/11 07:53:07;;;;;;;6.70;4.60;;;;;;;;;;110016;1253;36539;-37
2022/09/11 07:55:38;;;;;;;5.30;3.70;;;;;;;;;;109984;1253;34343;-37
2022/09/11 07:58:09;;;;;;;5.80;3.90;;;;;;;;;;110024;1253;36196;-35
2022/09/11 08:00:40;;;;;;;6.20;4.00;;;;;;;;;;110012;1253;36207;-35
2022/09/11 08:03:11;;;;;;;6.20;3.90;;;;;;;;;;110014;1252;36781;-35
2022/09/11 08:05:41;;;;;;;6.00;4.00;;;;;;;;;;109977;1252;36128;-35
2022/09/11 08:08:12;;;;;;;6.60;4.20;;;;;;;;;;110017;1254;36201;-35
2022/09/11 08:10:43;;;;;;;6.00;4.30;;;;;;;;;;110031;1253;37132;-35
2022/09/11 08:13:13;;;;;;;6.60;3.90;;;;;;;;;;110009;1254;34836;-37
2022/09/11 08:15:49;;;;;;;5.80;4.10;;;;;;;;;;109986;1253;34273;-37
2022/09/11 08:18:20;;;;;;;7.30;4.00;;;;;;;;;;110042;1253;36905;-37
2022/09/11 08:20:51;;;;;;;7.00;4.00;;;;;;;;;;109996;1253;36475;-37
2022/09/11 08:23:21;;;;;;;5.90;4.20;;;;;;;;;;110000;1253;36130;-38
2022/09/11 08:25:52;;;;;;;7.20;4.20;;;;;;;;;;109967;1253;36542;-37
2022/09/11 08:28:23;;;;;;;6.60;4.30;;;;;;;;;;109970;1253;36528;-37
2022/09/11 08:30:58;;;;;;;6.60;4.10;;;;;;;;;;110046;1253;36546;-37
2022/09/11 08:33:28;;;;;;;6.70;4.10;;;;;;;;;;110014;1253;36151;-37
2022/09/11 08:36:04;;;;;;;7.30;4.60;;;;;;;;;;109965;1252;36160;-37
2022/09/11 08:38:37;;;;;;;7.30;4.50;;;;;;;;;;110029;1253;36493;-38
2022/09/11 08:41:19;;;;;;;7.60;4.10;;;;;;;;;;110036;1254;36201;-37
2022/09/11 08:43:53;;;;;;;6.20;4.50;;;;;;;;;;109967;1252;36462;-37
2022/09/11 08:46:30;;;;;;;7.60;4.50;;;;;;;;;;110015;1254;36366;-37
2022/09/11 08:49:06;;;;;;;7.70;4.80;;;;;;;;;;109996;1254;36372;-37
2022/09/11 08:51:38;;;;;;;6.50;4.50;;;;;;;;;;110018;1254;36336;-37
2022/09/11 08:54:16;;;;;;;7.80;4.40;;;;;;;;;;110039;1253;36427;-35
2022/09/11 08:56:47;;;;;;;7.10;4.40;;;;;;;;;;110002;1253;36581;-35
2022/09/11 08:59:29;;;;;;;6.20;4.30;;;;;;;;;;110042;1253;35519;-35
2022/09/11 09:02:17;;;;;;;6.20;4.60;;;;;;;;;;110029;1254;36659;-35
2022/09/11 09:05:07;;;;;;;6.90;5.00;;;;;;;;;;109925;1254;36769;-35
2022/09/11 09:07:43;;;;;;;7.00;4.40;;;;;;;;;;109943;1254;36843;-35
2022/09/11 09:10:28;;;;;;;6.50;4.60;;;;;;;;;;110001;1253;36255;-35
2022/09/11 09:13:08;;;;;;;7.50;4.50;;;;;;;;;;110004;1254;36817;-36
2022/09/11 09:15:47;;;;;;;7.00;4.40;;;;;;;;;;110002;1254;36548;-36
2022/09/11 09:18:31;;;;;;;7.70;4.50;;;;;;;;;;109922;1254;36652;-37
2022/09/11 09:21:08;;;;;;;7.30;5.00;;;;;;;;;;109916;1254;35834;-35
2022/09/11 09:23:43;;;;;;;5.90;4.20;;;;;;;;;;109938;1254;35070;-35
2022/09/11 09:26:18;;;;;;;6.90;5.00;;;;;;;;;;109954;1254;36519;-35
2022/09/11 09:28:50;;;;;;;6.30;4.30;;;;;;;;;;109960;1253;36460;-35
2022/09/11 09:31:25;;;;;;;6.70;4.60;;;;;;;;;;110011;1254;36563;-35
2022/09/11 09:34:01;;;;;;;6.80;4.20;;;;;;;;;;110002;1254;35169;-35
2022/09/11 09:36:36;;;;;;;7.70;4.60;;;;;;;;;;109995;1253;37451;-35
2022/09/11 09:39:13;;;;;;;7.30;5.40;;;;;;;;;;109914;1253;36664;-35
2022/09/11 09:42:09;;;;;;;7.60;4.30;;;;;;;;;;109990;1254;37057;-35
2022/09/11 09:45:00;;;;;;;6.60;4.30;;;;;;;;;;109965;1253;37099;-35
2022/09/11 09:47:30;;;;;;;7.20;4.30;;;;;;;;;;109925;1253;36674;-35
2022/09/11 09:50:01;;;;;;;6.80;4.00;;;;;;;;;;110009;1253;36503;-35
2022/09/11 09:52:40;;;;;;;7.60;4.30;;;;;;;;;;109986;1253;36302;-35
2022/09/11 09:55:17;;;;;;;7.00;4.40;;;;;;;;;;110002;1254;36196;-35
2022/09/11 09:57:49;;;;;;;5.30;4.00;;;;;;;;;;109943;1253;36185;-35
2022/09/11 10:00:21;;;;;;;7.10;4.40;;;;;;;;;;109998;1254;35345;-35
2022/09/11 10:02:53;;;;;;;5.70;3.80;;;;;;;;;;109958;1253;36197;-35
2022/09/11 10:05:30;;;;;;;5.90;4.10;;;;;;;;;;110019;1254;36327;-35
2022/09/11 10:08:24;;;;;;;6.40;4.10;;;;;;;;;;110006;1254;36233;-35
2022/09/11 10:10:58;;;;;;;6.80;4.50;;;;;;;;;;110014;1253;36656;-35
2022/09/11 10:13:31;;;;;;;6.70;4.10;;;;;;;;;;109954;1254;36258;-35
2022/09/11 10:16:04;;;;;;;5.90;4.20;;;;;;;;;;110010;1253;36561;-35
2022/09/11 10:18:41;;;;;;;6.20;4.50;;;;;;;;;;109975;1254;35590;-35
2022/09/11 10:21:23;;;;;;;6.60;3.50;;;;;;;;;;109954;1253;36664;-35
2022/09/11 10:23:57;;;;;;;6.20;3.80;;;;;;;;;;110022;1252;36813;-35
2022/09/11 10:26:32;;;;;;;;;;;;;;;;;;109985;1253;36235;-35
2022/09/11 10:29:12;;;;;;;6.00;4.00;;;;;;;;;;109973;1253;36184;-35
2022/09/11 10:31:50;;;;;;;5.30;3.30;;;;;;;;;;109990;1253;35433;-35
2022/09/11 10:34:23;;;;;;;6.10;3.70;;;;;;;;;;110010;1254;36201;-35
2022/09/11 10:36:57;;;;;;;5.40;3.40;;;;;;;;;;110031;1254;36589;-35
2022/09/11 10:39:32;;;;;;;5.30;3.70;;;;;;;;;;109990;1253;34678;-35
2022/09/11 10:42:15;;;;;;;5.80;3.60;;;;;;;;;;110021;1253;35269;-35
2022/09/11 10:44:47;;;;;;;5.90;3.60;;;;;;;;;;110043;1252;36827;-35
2022/09/11 10:47:23;;;;;;;6.30;4.00;;;;;;;;;;109999;1253;36672;-35
2022/09/11 10:50:19;;;;;;;6.50;3.50;;;;;;;;;;110002;1253;34902;-34
2022/09/11 10:53:03;;;;;;;5.20;3.70;;;;;;;;;;110023;1253;36573;-37
2022/09/11 10:55:39;;;;;;;6.70;3.60;;;;;;;;;;110000;1254;36631;-37
2022/09/11 10:58:17;;;;;;;5.70;3.30;;;;;;;;;;110014;1254;34345;-37
2022/09/11 11:00:50;;;;;;;5.70;3.70;;;;;;;;;;109952;1253;35434;-37
2022/09/11 11:03:26;;;;;;;5.30;3.20;;;;;;;;;;110001;1253;36231;-37
2022/09/11 11:06:10;;;;;;;6.10;3.30;;;;;;;;;;109869;1254;36659;-37
2022/09/11 11:08:56;;;;;;;;;;;;;;;;;;109906;1254;36670;-37
2022/09/11 11:11:40;;;;;;;5.70;3.50;;;;;;;;;;109495;1256;41233;-41
2022/09/11 11:14:25;;;;;;;5.80;3.00;;;;;;;;;;109748;1255;33744;-41
2022/09/11 11:17:05;;;;;;;5.50;3.50;;;;;;;;;;109765;1255;34979;-42
2022/09/11 11:20:04;;;;;;;6.60;3.30;;;;;;;;;;109672;1254;34064;-41
2022/09/11 11:22:58;;;;;;;6.40;3.40;;;;;;;;;;109545;1254;34178;-41
2022/09/11 11:25:29;;;;;;;;;;;;;;;;;;109861;1254;36236;-37
2022/09/11 11:28:41;;;;;;;5.50;3.60;;;;;;;;;;109863;1254;35106;-37
2022/09/11 11:31:27;;;;;;;5.20;3.40;;;;;;;;;;109133;1259;36166;-37
2022/09/11 11:34:16;;;;;;;5.50;3.40;;;;;;;;;;109144;1259;36828;-37
2022/09/11 11:36:51;;;;;;;5.20;3.40;;;;;;;;;;109554;1256;36316;-37
2022/09/11 11:39:28;;;;;;;5.60;3.40;;;;;;;;;;109731;1255;36982;-36
2022/09/11 11:42:08;;;;;;;5.20;3.50;;;;;;;;;;109944;1254;38547;-37
2022/09/11 11:44:45;;;;;;;5.80;3.50;;;;;;;;;;109868;1254;36578;-38
2022/09/11 11:47:23;;;;;;;5.90;3.50;;;;;;;;;;109873;1254;36697;-37
2022/09/11 11:50:01;;;;;;;6.30;3.40;;;;;;;;;;109857;1254;34844;-37
2022/09/11 11:52:43;;;;;;;6.10;3.50;;;;;;;;;;109733;1255;42360;-37
2022/09/11 11:55:20;;;;;;;5.20;3.50;;;;;;;;;;109758;1256;36127;-37
2022/09/11 11:58:00;;;;;;;5.50;3.40;;;;;;;;;;109763;1255;36179;-37
2022/09/11 12:00:38;;;;;;;5.90;3.50;;;;;;;;;;109737;1254;36570;-37
2022/09/11 12:03:18;;;;;;;5.70;3.50;;;;;;;;;;109915;1254;36295;-37
2022/09/11 12:05:49;;;;;;;5.80;3.70;;;;;;;;;;110045;1252;36923;-37
2022/09/11 12:08:22;;;;;;;5.80;3.50;;;;;;;;;;110071;1252;35001;-37
2022/09/11 12:11:00;;;;;;;5.70;3.60;;;;;;;;;;110001;1252;36294;-37
2022/09/11 12:13:35;;;;;;;5.80;3.50;;;;;;;;;;109981;1254;36257;-38
2022/09/11 12:16:14;;;;;;;5.50;3.60;;;;;;;;;;110087;1253;36665;-38
2022/09/11 12:19:04;;;;;;;5.50;3.50;;;;;;;;;;110038;1253;36136;-37
2022/09/11 12:21:41;;;;;;;7.00;3.40;;;;;;;;;;110025;1253;37558;-37
2022/09/11 12:24:17;;;;;;;4.80;3.20;;;;;;;;;;110062;1253;36230;-37
2022/09/11 12:27:08;;;;;;;5.30;3.40;;;;;;;;;;110034;1252;36369;-37
2022/09/11 12:30:00;;;;;;;6.20;3.70;;;;;;;;;;109992;1252;36319;-37
2022/09/11 12:32:45;;;;;;;5.60;3.30;;;;;;;;;;109920;1254;36126;-37
2022/09/11 12:35:24;;;;;;;6.00;3.80;;;;;;;;;;109999;1253;36547;-37
2022/09/11 12:38:12;;;;;;;7.00;3.80;;;;;;;;;;110027;1253;36658;-37
2022/09/11 12:40:52;;;;;;;6.10;3.20;;;;;;;;;;110011;1254;34870;-37
2022/09/11 12:43:46;;;;;;;5.50;3.30;;;;;;;;;;110158;1252;35683;-35
2022/09/11 12:46:48;;;;;;;5.80;3.30;;;;;;;;;;110268;1252;36664;-37
2022/09/11 12:49:21;;;;;;;5.10;3.20;;;;;;;;;;110036;1252;38238;-37
2022/09/11 12:51:56;;;;;;;5.50;3.50;;;;;;;;;;109961;1252;39262;-37
2022/09/11 12:54:30;;;;;;;5.30;3.50;;;;;;;;;;110027;1253;36738;-37
2022/09/11 12:57:05;;;;;;;5.50;3.20;;;;;;;;;;109926;1253;36277;-37
2022/09/11 12:59:38;;;;;;;6.40;3.50;;;;;;;;;;109970;1253;34992;-37
2022/09/11 13:02:25;;;;;;;5.30;3.10;;;;;;;;;;109972;1252;35729;-39
2022/09/11 13:04:58;;;;;;;7.70;3.80;;;;;;;;;;110012;1252;34815;-39
2022/09/11 13:07:38;;;;;;;5.00;3.30;;;;;;;;;;109969;1252;34778;-41
2022/09/11 13:10:27;;;;;;;6.60;3.60;;;;;;;;;;109993;1252;34240;-39
2022/09/11 13:13:01;;;;;;;5.60;3.20;;;;;;;;;;109943;1252;38402;-38
2022/09/11 13:15:43;;;;;;;5.60;3.50;;;;;;;;;;109997;1253;36941;-38
2022/09/11 13:18:31;;;;;;;5.00;3.30;;;;;;;;;;109986;1253;33908;-35
2022/09/11 13:21:12;;;;;;;5.50;3.10;;;;;;;;;;109949;1254;35514;-35
2022/09/11 13:23:45;;;;;;;4.90;3.40;;;;;;;;;;109931;1254;36248;-35
2022/09/11 13:26:30;;;;;;;5.50;3.10;;;;;;;;;;109986;1253;37106;-34
2022/09/11 13:29:02;;;;;;;5.50;3.40;;;;;;;;;;109974;1253;35044;-35
2022/09/11 13:31:40;;;;;;;5.30;3.30;;;;;;;;;;109952;1252;36407;-35
2022/09/11 13:34:17;;;;;;;4.90;3.10;;;;;;;;;;109979;1253;36374;-34
2022/09/11 13:36:49;;;;;;;5.60;3.10;;;;;;;;;;110031;1253;35581;-35
2022/09/11 13:39:20;;;;;;;8.40;3.10;;;;;;;;;;110027;1253;36549;-34
2022/09/11 13:41:58;;;;;;;5.00;2.90;;;;;;;;;;110003;1253;36665;-34
2022/09/11 13:44:38;;;;;;;5.10;2.80;;;;;;;;;;110000;1252;34069;-34
2022/09/11 13:47:19;;;;;;;5.20;3.00;;;;;;;;;;110018;1252;36198;-34
2022/09/11 13:49:54;;;;;;;4.40;2.50;;;;;;;;;;110023;1252;36693;-34
2022/09/11 13:52:28;;;;;;;4.80;2.90;;;;;;;;;;110004;1252;36194;-34
2022/09/11 13:55:02;;;;;;;4.50;2.90;;;;;;;;;;109995;1253;36675;-34
2022/09/11 13:57:34;;;;;;;4.60;2.80;;;;;;;;;;110050;1253;34939;-36
2022/09/11 14:00:26;;;;;;;5.40;2.70;;;;;;;;;;109999;1253;36268;-36
2022/09/11 14:03:00;;;;;;;4.50;2.60;;;;;;;;;;109970;1253;34859;-37
2022/09/11 14:05:31;;;;;;;6.00;2.70;;;;;;;;;;110025;1252;37138;-37
2022/09/11 14:08:06;;;;;;;5.20;2.90;;;;;;;;;;110018;1252;36724;-37
2022/09/11 14:10:46;;;;;;;4.70;2.90;;;;;;;;;;110047;1252;35489;-35
2022/09/11 14:13:22;;;;;;;4.70;2.80;;;;;;;;;;110012;1252;36729;-36
2022/09/11 14:15:57;;;;;;;4.50;2.40;;;;;;;;;;109985;1253;33730;-35
2022/09/11 14:18:32;;;;;;;5.80;2.70;;;;;;;;;;109967;1253;36844;-35
2022/09/11 14:21:06;;;;;;;5.80;2.80;;;;;;;;;;110047;1253;34924;-36
2022/09/11 14:23:44;;;;;;;4.30;2.60;;;;;;;;;;109978;1252;36231;-35
2022/09/11 14:26:17;;;;;;;3.90;2.70;;;;;;;;;;110012;1252;35422;-36
2022/09/11 14:28:59;;;;;;;5.60;3.00;;;;;;;;;;110038;1252;36630;-36
2022/09/11 14:31:33;;;;;;;5.80;2.40;;;;;;;;;;110055;1252;37030;-36
2022/09/11 14:34:19;;;;;;;5.90;2.50;;;;;;;;;;109981;1252;36215;-36
2022/09/11 14:36:58;;;;;;;5.10;2.70;;;;;;;;;;110005;1253;36385;-36
2022/09/11 14:39:35;;;;;;;5.30;2.70;;;;;;;;;;110026;1253;35297;-36
2022/09/11 14:42:09;;;;;;;4.00;2.20;;;;;;;;;;110027;1253;36380;-36
2022/09/11 14:44:41;;;;;;;4.50;2.10;;;;;;;;;;110003;1252;39158;-36
2022/09/11 14:47:16;;;;;;;7.40;2.50;;;;;;;;;;110035;1252;36685;-36
2022/09/11 14:49:47;;;;;;;5.40;2.40;;;;;;;;;;110046;1252;38351;-36
2022/09/11 14:52:21;;;;;;;4.90;2.40;;;;;;;;;;110046;1252;34758;-36
2022/09/11 14:54:53;;;;;;;4.70;2.30;;;;;;;;;;110021;1252;34766;-36
2022/09/11 14:57:30;;;;;;;3.70;2.00;;;;;;;;;;110083;1253;36867;-36
2022/09/11 15:00:05;;;;;;;3.60;2.10;;;;;;;;;;110103;1253;35186;-36
2022/09/11 15:02:36;;;;;;;4.10;2.10;;;;;;;;;;110102;1253;36902;-36
2022/09/11 15:05:16;;;;;;;4.40;2.00;;;;;;;;;;110032;1253;36585;-36
2022/09/11 15:07:48;;;;;;;4.20;2.10;;;;;;;;;;110031;1253;36323;-36
2022/09/11 15:10:20;;;;;;;3.90;2.20;;;;;;;;;;110054;1253;36304;-36
2022/09/11 15:12:51;;;;;;;4.70;1.90;;;;;;;;;;110023;1253;36633;-36
2022/09/11 15:15:22;;;;;;;4.40;2.30;;;;;;;;;;109996;1253;36706;-36
2022/09/11 15:17:53;;;;;;;4.80;2.30;;;;;;;;;;109715;1253;416487;-36
2022/09/11 15:20:26;;;;;;;4.30;2.10;;;;;;;;;;110055;1253;34960;-36
2022/09/11 15:22:58;;;;;;;;;;;;;;;;;;110018;1253;36313;-36